sensor_id;sensor_type;location;lat;lon;timestamp;pressure;altitude;pressure_sealevel;temperature
53667;BMP280;39568;51.026;5.468;2023-04-24T00:00:20;99292.25;;;9.42
53667;BMP280;39568;51.026;5.468;2023-04-24T00:02:48;99294.69;;;9.40
53667;BMP280;39568;51.026;5.468;2023-04-24T00:05:16;99299.34;;;9.34
53667;BMP280;39568;51.026;5.468;2023-04-24T00:07:44;99266.31;;;9.35
53667;BMP280;39568;51.026;5.468;2023-04-24T00:10:14;99281.63;;;9.42
53667;BMP280;39568;51.026;5.468;2023-04-24T00:12:41;99287.53;;;9.35
53667;BMP280;39568;51.026;5.468;2023-04-24T00:15:10;99286.09;;;9.34
53667;BMP280;39568;51.026;5.468;2023-04-24T00:17:39;99285.81;;;9.38
53667;BMP280;39568;51.026;5.468;2023-04-24T00:20:09;99289.38;;;9.40
53667;BMP280;39568;51.026;5.468;2023-04-24T00:22:37;99306.00;;;9.28
53667;BMP280;39568;51.026;5.468;2023-04-24T00:25:04;99295.50;;;9.35
53667;BMP280;39568;51.026;5.468;2023-04-24T00:27:31;99303.34;;;9.28
53667;BMP280;39568;51.026;5.468;2023-04-24T00:30:00;99306.09;;;9.35
53667;BMP280;39568;51.026;5.468;2023-04-24T00:32:30;99320.69;;;9.29
53667;BMP280;39568;51.026;5.468;2023-04-24T00:34:57;99305.75;;;9.26
53667;BMP280;39568;51.026;5.468;2023-04-24T00:37:24;99291.00;;;9.30
53667;BMP280;39568;51.026;5.468;2023-04-24T00:39:51;99310.41;;;9.38
53667;BMP280;39568;51.026;5.468;2023-04-24T00:42:18;99301.13;;;9.32
53667;BMP280;39568;51.026;5.468;2023-04-24T00:44:44;99298.97;;;9.30
53667;BMP280;39568;51.026;5.468;2023-04-24T00:47:12;99302.94;;;9.24
53667;BMP280;39568;51.026;5.468;2023-04-24T00:49:41;99301.38;;;9.28
53667;BMP280;39568;51.026;5.468;2023-04-24T00:52:07;99291.00;;;9.30
53667;BMP280;39568;51.026;5.468;2023-04-24T00:54:36;99305.66;;;9.18
53667;BMP280;39568;51.026;5.468;2023-04-24T00:57:04;99303.25;;;9.33
53667;BMP280;39568;51.026;5.468;2023-04-24T00:59:38;99344.34;;;9.27
53667;BMP280;39568;51.026;5.468;2023-04-24T01:02:06;99319.63;;;9.19
53667;BMP280;39568;51.026;5.468;2023-04-24T01:04:34;99315.59;;;9.31
53667;BMP280;39568;51.026;5.468;2023-04-24T01:07:03;99314.25;;;9.24
53667;BMP280;39568;51.026;5.468;2023-04-24T01:09:35;99309.75;;;9.19
53667;BMP280;39568;51.026;5.468;2023-04-24T01:12:03;99316.97;;;9.19
53667;BMP280;39568;51.026;5.468;2023-04-24T01:14:31;99303.63;;;9.24
53667;BMP280;39568;51.026;5.468;2023-04-24T01:16:58;99324.19;;;9.05
53667;BMP280;39568;51.026;5.468;2023-04-24T01:19:25;99306.81;;;9.23
53667;BMP280;39568;51.026;5.468;2023-04-24T01:21:54;99302.22;;;9.23
53667;BMP280;39568;51.026;5.468;2023-04-24T01:24:24;99294.66;;;9.27
53667;BMP280;39568;51.026;5.468;2023-04-24T01:26:53;99322.59;;;9.28
53667;BMP280;39568;51.026;5.468;2023-04-24T01:29:20;99310.59;;;9.27
53667;BMP280;39568;51.026;5.468;2023-04-24T01:31:47;99299.72;;;9.25
53667;BMP280;39568;51.026;5.468;2023-04-24T01:34:14;99310.34;;;9.25
53667;BMP280;39568;51.026;5.468;2023-04-24T01:36:41;99301.38;;;9.28
53667;BMP280;39568;51.026;5.468;2023-04-24T01:39:10;99287.91;;;9.26
53667;BMP280;39568;51.026;5.468;2023-04-24T01:41:41;99309.94;;;9.21
53667;BMP280;39568;51.026;5.468;2023-04-24T01:44:08;99311.19;;;9.20
53667;BMP280;39568;51.026;5.468;2023-04-24T01:46:35;99294.13;;;9.29
53667;BMP280;39568;51.026;5.468;2023-04-24T01:49:02;99294.88;;;9.29
53667;BMP280;39568;51.026;5.468;2023-04-24T01:51:29;99296.91;;;9.23
53667;BMP280;39568;51.026;5.468;2023-04-24T01:53:57;99295.97;;;9.21
53667;BMP280;39568;51.026;5.468;2023-04-24T01:56:36;99296.25;;;9.17
53667;BMP280;39568;51.026;5.468;2023-04-24T01:59:07;99291.06;;;9.12
53667;BMP280;39568;51.026;5.468;2023-04-24T02:01:40;99292.19;;;9.16
53667;BMP280;39568;51.026;5.468;2023-04-24T02:04:07;99293.63;;;8.98
53667;BMP280;39568;51.026;5.468;2023-04-24T02:06:34;99296.28;;;8.98
53667;BMP280;39568;51.026;5.468;2023-04-24T02:09:01;99297.00;;;8.99
53667;BMP280;39568;51.026;5.468;2023-04-24T02:11:30;99300.69;;;8.96
53667;BMP280;39568;51.026;5.468;2023-04-24T02:13:57;99299.31;;;8.89
53667;BMP280;39568;51.026;5.468;2023-04-24T02:16:25;99299.69;;;8.80
53667;BMP280;39568;51.026;5.468;2023-04-24T02:18:53;99297.69;;;8.68
53667;BMP280;39568;51.026;5.468;2023-04-24T02:21:19;99297.28;;;8.64
53667;BMP280;39568;51.026;5.468;2023-04-24T02:23:46;99306.44;;;8.63
53667;BMP280;39568;51.026;5.468;2023-04-24T02:26:17;99309.09;;;8.63
53667;BMP280;39568;51.026;5.468;2023-04-24T02:28:44;99302.63;;;8.58
53667;BMP280;39568;51.026;5.468;2023-04-24T02:31:11;99287.16;;;8.62
53667;BMP280;39568;51.026;5.468;2023-04-24T02:33:39;99306.28;;;8.55
53667;BMP280;39568;51.026;5.468;2023-04-24T02:36:06;99306.44;;;8.63
53667;BMP280;39568;51.026;5.468;2023-04-24T02:38:33;99323.63;;;8.56
53667;BMP280;39568;51.026;5.468;2023-04-24T02:41:00;99303.56;;;8.61
53667;BMP280;39568;51.026;5.468;2023-04-24T02:43:28;99297.31;;;8.58
53667;BMP280;39568;51.026;5.468;2023-04-24T02:45:55;99320.19;;;8.61
53667;BMP280;39568;51.026;5.468;2023-04-24T02:48:22;99300.69;;;8.59
53667;BMP280;39568;51.026;5.468;2023-04-24T02:50:53;99301.41;;;8.59
53667;BMP280;39568;51.026;5.468;2023-04-24T02:53:19;99294.03;;;8.52
53667;BMP280;39568;51.026;5.468;2023-04-24T02:55:46;99312.59;;;8.52
53667;BMP280;39568;51.026;5.468;2023-04-24T02:58:13;99313.44;;;8.42
53667;BMP280;39568;51.026;5.468;2023-04-24T03:00:39;99291.53;;;8.41
53667;BMP280;39568;51.026;5.468;2023-04-24T03:03:06;99313.44;;;8.42
53667;BMP280;39568;51.026;5.468;2023-04-24T03:05:33;99297.19;;;8.32
53667;BMP280;39568;51.026;5.468;2023-04-24T03:08:07;99295.97;;;8.33
53667;BMP280;39568;51.026;5.468;2023-04-24T03:10:35;99307.56;;;8.30
53667;BMP280;39568;51.026;5.468;2023-04-24T03:13:04;99306.34;;;8.31
53667;BMP280;39568;51.026;5.468;2023-04-24T03:15:30;99305.75;;;8.19
53667;BMP280;39568;51.026;5.468;2023-04-24T03:17:57;99305.53;;;8.17
53667;BMP280;39568;51.026;5.468;2023-04-24T03:20:24;99304.53;;;8.20
53667;BMP280;39568;51.026;5.468;2023-04-24T03:22:51;99321.72;;;8.14
53667;BMP280;39568;51.026;5.468;2023-04-24T03:25:19;99311.41;;;8.10
53667;BMP280;39568;51.026;5.468;2023-04-24T03:27:51;99310.53;;;8.02
53667;BMP280;39568;51.026;5.468;2023-04-24T03:30:25;99310.25;;;8.06
53667;BMP280;39568;51.026;5.468;2023-04-24T03:32:52;99319.41;;;8.05
53667;BMP280;39568;51.026;5.468;2023-04-24T03:35:20;99322.06;;;7.99
53667;BMP280;39568;51.026;5.468;2023-04-24T03:37:47;99313.66;;;8.01
53667;BMP280;39568;51.026;5.468;2023-04-24T03:40:15;99311.50;;;7.99
53667;BMP280;39568;51.026;5.468;2023-04-24T03:42:43;99310.78;;;7.99
53667;BMP280;39568;51.026;5.468;2023-04-24T03:45:10;99313.00;;;7.95
53667;BMP280;39568;51.026;5.468;2023-04-24T03:47:36;99313.50;;;7.93
53667;BMP280;39568;51.026;5.468;2023-04-24T03:50:09;99319.78;;;7.90
53667;BMP280;39568;51.026;5.468;2023-04-24T03:52:42;99326.06;;;7.87
53667;BMP280;39568;51.026;5.468;2023-04-24T03:55:09;99328.94;;;7.89
53667;BMP280;39568;51.026;5.468;2023-04-24T03:57:38;99321.72;;;7.90
53667;BMP280;39568;51.026;5.468;2023-04-24T04:00:08;99312.41;;;7.83
53667;BMP280;39568;51.026;5.468;2023-04-24T04:02:36;99317.88;;;7.85
53667;BMP280;39568;51.026;5.468;2023-04-24T04:05:03;99317.88;;;7.85
53667;BMP280;39568;51.026;5.468;2023-04-24T04:07:30;99314.03;;;7.86
53667;BMP280;39568;51.026;5.468;2023-04-24T04:09:57;99316.16;;;7.88
53667;BMP280;39568;51.026;5.468;2023-04-24T04:12:23;99334.78;;;7.82
53667;BMP280;39568;51.026;5.468;2023-04-24T04:14:50;99308.31;;;7.82
53667;BMP280;39568;51.026;5.468;2023-04-24T04:17:18;99318.59;;;7.86
53667;BMP280;39568;51.026;5.468;2023-04-24T04:19:45;99322.91;;;7.89
53667;BMP280;39568;51.026;5.468;2023-04-24T04:22:12;99331.13;;;7.85
53667;BMP280;39568;51.026;5.468;2023-04-24T04:24:38;99352.53;;;7.87
53667;BMP280;39568;51.026;5.468;2023-04-24T04:27:06;99353.53;;;7.84
53667;BMP280;39568;51.026;5.468;2023-04-24T04:29:34;99328.47;;;7.85
53667;BMP280;39568;51.026;5.468;2023-04-24T04:32:07;99331.38;;;7.87
53667;BMP280;39568;51.026;5.468;2023-04-24T04:34:35;99352.31;;;7.85
53667;BMP280;39568;51.026;5.468;2023-04-24T04:37:03;99341.56;;;7.77
53667;BMP280;39568;51.026;5.468;2023-04-24T04:39:30;99329.97;;;7.80
53667;BMP280;39568;51.026;5.468;2023-04-24T04:41:59;99340.09;;;7.76
53667;BMP280;39568;51.026;5.468;2023-04-24T04:44:29;99355.34;;;7.70
53667;BMP280;39568;51.026;5.468;2023-04-24T04:46:58;99363.28;;;7.70
53667;BMP280;39568;51.026;5.468;2023-04-24T04:49:25;99325.72;;;7.72
53667;BMP280;39568;51.026;5.468;2023-04-24T04:51:55;99339.19;;;7.74
53667;BMP280;39568;51.026;5.468;2023-04-24T04:54:24;99351.72;;;7.68
53667;BMP280;39568;51.026;5.468;2023-04-24T04:56:52;99356.50;;;7.75
53667;BMP280;39568;51.026;5.468;2023-04-24T04:59:21;99347.63;;;7.72
53667;BMP280;39568;51.026;5.468;2023-04-24T05:01:51;99361.13;;;7.69
53667;BMP280;39568;51.026;5.468;2023-04-24T05:04:18;99363.75;;;7.69
53667;BMP280;39568;51.026;5.468;2023-04-24T05:06:49;99360.91;;;7.67
53667;BMP280;39568;51.026;5.468;2023-04-24T05:09:18;99364.00;;;7.71
53667;BMP280;39568;51.026;5.468;2023-04-24T05:11:45;99359.91;;;7.70
53667;BMP280;39568;51.026;5.468;2023-04-24T05:14:14;99360.63;;;7.70
53667;BMP280;39568;51.026;5.468;2023-04-24T05:16:43;99370.25;;;7.68
53667;BMP280;39568;51.026;5.468;2023-04-24T05:19:10;99378.19;;;7.68
53667;BMP280;39568;51.026;5.468;2023-04-24T05:21:39;99389.25;;;7.72
53667;BMP280;39568;51.026;5.468;2023-04-24T05:24:06;99396.94;;;7.75
53667;BMP280;39568;51.026;5.468;2023-04-24T05:26:34;99390.41;;;7.76
53667;BMP280;39568;51.026;5.468;2023-04-24T05:29:03;99416.66;;;7.74
53667;BMP280;39568;51.026;5.468;2023-04-24T05:31:30;99393.56;;;7.75
53667;BMP280;39568;51.026;5.468;2023-04-24T05:33:57;99410.38;;;7.77
53667;BMP280;39568;51.026;5.468;2023-04-24T05:36:24;99409.44;;;7.75
53667;BMP280;39568;51.026;5.468;2023-04-24T05:38:54;99397.44;;;7.74
53667;BMP280;39568;51.026;5.468;2023-04-24T05:41:21;99410.44;;;7.72
53667;BMP280;39568;51.026;5.468;2023-04-24T05:43:52;99418.88;;;7.70
53667;BMP280;39568;51.026;5.468;2023-04-24T05:46:19;99428.50;;;7.68
53667;BMP280;39568;51.026;5.468;2023-04-24T05:48:46;99437.66;;;7.67
53667;BMP280;39568;51.026;5.468;2023-04-24T05:51:13;99436.22;;;7.66
53667;BMP280;39568;51.026;5.468;2023-04-24T05:53:39;99437.41;;;7.65
53667;BMP280;39568;51.026;5.468;2023-04-24T05:56:06;99430.91;;;7.66
53667;BMP280;39568;51.026;5.468;2023-04-24T05:58:33;99436.69;;;7.64
53667;BMP280;39568;51.026;5.468;2023-04-24T06:01:03;99443.72;;;7.62
53667;BMP280;39568;51.026;5.468;2023-04-24T06:03:31;99433.59;;;7.60
53667;BMP280;39568;51.026;5.468;2023-04-24T06:05:58;99443.97;;;7.58
53667;BMP280;39568;51.026;5.468;2023-04-24T06:08:25;99462.25;;;7.56
53667;BMP280;39568;51.026;5.468;2023-04-24T06:10:52;99469.97;;;7.54
53667;BMP280;39568;51.026;5.468;2023-04-24T06:13:18;99470.25;;;7.51
53667;BMP280;39568;51.026;5.468;2023-04-24T06:15:45;99489.75;;;7.48
53667;BMP280;39568;51.026;5.468;2023-04-24T06:18:14;99480.84;;;7.45
53667;BMP280;39568;51.026;5.468;2023-04-24T06:20:41;99494.06;;;7.45
53667;BMP280;39568;51.026;5.468;2023-04-24T06:23:08;99502.50;;;7.44
53667;BMP280;39568;51.026;5.468;2023-04-24T06:25:35;99496.03;;;7.39
53667;BMP280;39568;51.026;5.468;2023-04-24T06:28:02;99506.81;;;7.41
53667;BMP280;39568;51.026;5.468;2023-04-24T06:30:28;99515.75;;;7.38
53667;BMP280;39568;51.026;5.468;2023-04-24T06:32:56;99510.47;;;7.33
53667;BMP280;39568;51.026;5.468;2023-04-24T06:35:28;99517.47;;;7.36
53667;BMP280;39568;51.026;5.468;2023-04-24T06:37:55;99532.63;;;7.35
53667;BMP280;39568;51.026;5.468;2023-04-24T06:40:22;99517.72;;;7.32
53667;BMP280;39568;51.026;5.468;2023-04-24T06:42:48;99541.03;;;7.34
53667;BMP280;39568;51.026;5.468;2023-04-24T06:45:18;99527.31;;;7.30
53667;BMP280;39568;51.026;5.468;2023-04-24T06:47:45;99547.03;;;7.28
53667;BMP280;39568;51.026;5.468;2023-04-24T06:50:11;99564.88;;;7.28
53667;BMP280;39568;51.026;5.468;2023-04-24T06:52:43;99563.91;;;7.25
53667;BMP280;39568;51.026;5.468;2023-04-24T06:55:11;99575.44;;;7.22
53667;BMP280;39568;51.026;5.468;2023-04-24T06:57:42;99573.06;;;7.24
53667;BMP280;39568;51.026;5.468;2023-04-24T07:00:10;99581.72;;;7.19
53667;BMP280;39568;51.026;5.468;2023-04-24T07:02:37;99587.28;;;7.16
53667;BMP280;39568;51.026;5.468;2023-04-24T07:05:04;99589.19;;;7.15
53667;BMP280;39568;51.026;5.468;2023-04-24T07:07:32;99581.94;;;7.21
53667;BMP280;39568;51.026;5.468;2023-04-24T07:10:02;99591.09;;;7.20
53667;BMP280;39568;51.026;5.468;2023-04-24T07:12:32;99594.47;;;7.15
53667;BMP280;39568;51.026;5.468;2023-04-24T07:15:00;99604.06;;;7.24
53667;BMP280;39568;51.026;5.468;2023-04-24T07:17:27;99611.28;;;7.23
53667;BMP280;39568;51.026;5.468;2023-04-24T07:19:54;99591.56;;;7.24
53667;BMP280;39568;51.026;5.468;2023-04-24T07:22:20;99616.81;;;7.25
53667;BMP280;39568;51.026;5.468;2023-04-24T07:24:48;99642.28;;;7.28
53667;BMP280;39568;51.026;5.468;2023-04-24T07:27:16;99632.44;;;7.35
53667;BMP280;39568;51.026;5.468;2023-04-24T07:29:42;99631.69;;;7.34
53667;BMP280;39568;51.026;5.468;2023-04-24T07:32:09;99634.13;;;7.32
53667;BMP280;39568;51.026;5.468;2023-04-24T07:34:36;99652.41;;;7.36
53667;BMP280;39568;51.026;5.468;2023-04-24T07:37:03;99653.13;;;7.36
53667;BMP280;39568;51.026;5.468;2023-04-24T07:39:30;99651.91;;;7.37
53667;BMP280;39568;51.026;5.468;2023-04-24T07:41:57;99662.72;;;7.34
53667;BMP280;39568;51.026;5.468;2023-04-24T07:44:26;99673.56;;;7.36
53667;BMP280;39568;51.026;5.468;2023-04-24T07:46:53;99670.66;;;7.34
53667;BMP280;39568;51.026;5.468;2023-04-24T07:49:24;99669.69;;;7.37
53667;BMP280;39568;51.026;5.468;2023-04-24T07:51:50;99676.69;;;7.40
53667;BMP280;39568;51.026;5.468;2023-04-24T07:54:17;99686.53;;;7.34
53667;BMP280;39568;51.026;5.468;2023-04-24T07:56:43;99670.91;;;7.36
53667;BMP280;39568;51.026;5.468;2023-04-24T07:59:10;99689.44;;;7.36
53667;BMP280;39568;51.026;5.468;2023-04-24T08:01:39;99690.66;;;7.40
53667;BMP280;39568;51.026;5.468;2023-04-24T08:04:05;99707.97;;;7.36
53667;BMP280;39568;51.026;5.468;2023-04-24T08:06:32;99710.13;;;7.37
53667;BMP280;39568;51.026;5.468;2023-04-24T08:08:59;99715.41;;;7.26
53667;BMP280;39568;51.026;5.468;2023-04-24T08:11:26;99723.13;;;7.24
53667;BMP280;39568;51.026;5.468;2023-04-24T08:13:53;99714.19;;;7.21
53667;BMP280;39568;51.026;5.468;2023-04-24T08:16:20;99724.56;;;7.14
53667;BMP280;39568;51.026;5.468;2023-04-24T08:18:48;99732.72;;;7.21
53667;BMP280;39568;51.026;5.468;2023-04-24T08:21:14;99732.97;;;7.23
53667;BMP280;39568;51.026;5.468;2023-04-24T08:23:42;99738.75;;;7.28
53667;BMP280;39568;51.026;5.468;2023-04-24T08:26:09;99754.13;;;7.35
53667;BMP280;39568;51.026;5.468;2023-04-24T08:28:36;99755.81;;;7.27
53667;BMP280;39568;51.026;5.468;2023-04-24T08:31:03;99770.50;;;7.28
53667;BMP280;39568;51.026;5.468;2023-04-24T08:33:31;99759.19;;;7.27
53667;BMP280;39568;51.026;5.468;2023-04-24T08:36:01;99762.31;;;7.48
53667;BMP280;39568;51.026;5.468;2023-04-24T08:38:32;99776.50;;;7.67
53667;BMP280;39568;51.026;5.468;2023-04-24T08:41:01;99779.34;;;7.86
53667;BMP280;39568;51.026;5.468;2023-04-24T08:43:31;99781.75;;;7.95
53667;BMP280;39568;51.026;5.468;2023-04-24T08:46:00;99783.13;;;8.18
53667;BMP280;39568;51.026;5.468;2023-04-24T08:48:36;99789.03;;;8.46
53667;BMP280;39568;51.026;5.468;2023-04-24T08:51:06;99789.38;;;8.72
53667;BMP280;39568;51.026;5.468;2023-04-24T08:53:34;99792.28;;;8.69
53667;BMP280;39568;51.026;5.468;2023-04-24T08:56:01;99793.72;;;8.75
53667;BMP280;39568;51.026;5.468;2023-04-24T08:58:29;99807.75;;;8.65
53667;BMP280;39568;51.026;5.468;2023-04-24T09:00:58;99801.38;;;8.79
53667;BMP280;39568;51.026;5.468;2023-04-24T09:03:27;99806.16;;;8.91
53667;BMP280;39568;51.026;5.468;2023-04-24T09:05:55;99807.81;;;8.89
53667;BMP280;39568;51.026;5.468;2023-04-24T09:08:24;99813.31;;;9.02
53667;BMP280;39568;51.026;5.468;2023-04-24T09:10:51;99803.25;;;8.95
53667;BMP280;39568;51.026;5.468;2023-04-24T09:13:20;99817.22;;;8.95
53667;BMP280;39568;51.026;5.468;2023-04-24T09:15:46;99812.50;;;9.13
53667;BMP280;39568;51.026;5.468;2023-04-24T09:18:13;99811.19;;;9.30
53667;BMP280;39568;51.026;5.468;2023-04-24T09:20:58;99822.78;;;9.27
53667;BMP280;39568;51.026;5.468;2023-04-24T09:23:28;99826.34;;;9.35
53667;BMP280;39568;51.026;5.468;2023-04-24T09:25:55;99828.81;;;9.28
53667;BMP280;39568;51.026;5.468;2023-04-24T09:28:26;99840.94;;;9.23
53667;BMP280;39568;51.026;5.468;2023-04-24T09:31:03;99842.88;;;9.17
53667;BMP280;39568;51.026;5.468;2023-04-24T09:33:30;99842.88;;;9.17
53667;BMP280;39568;51.026;5.468;2023-04-24T09:35:57;99843.94;;;9.03
53667;BMP280;39568;51.026;5.468;2023-04-24T09:38:32;99851.44;;;8.99
53667;BMP280;39568;51.026;5.468;2023-04-24T09:41:02;99849.47;;;9.05
53667;BMP280;39568;51.026;5.468;2023-04-24T09:43:29;99857.53;;;8.88
53667;BMP280;39568;51.026;5.468;2023-04-24T09:45:56;99846.28;;;8.77
53667;BMP280;39568;51.026;5.468;2023-04-24T09:48:30;99870.16;;;8.66
53667;BMP280;39568;51.026;5.468;2023-04-24T09:50:57;99872.59;;;8.58
53667;BMP280;39568;51.026;5.468;2023-04-24T09:53:28;99873.63;;;8.38
53667;BMP280;39568;51.026;5.468;2023-04-24T09:56:06;99883.28;;;8.36
53667;BMP280;39568;51.026;5.468;2023-04-24T09:58:34;99887.00;;;8.74
53667;BMP280;39568;51.026;5.468;2023-04-24T10:01:01;99893.28;;;9.52
53667;BMP280;39568;51.026;5.468;2023-04-24T10:03:30;99887.16;;;9.69
53667;BMP280;39568;51.026;5.468;2023-04-24T10:05:58;99884.97;;;9.97
53667;BMP280;39568;51.026;5.468;2023-04-24T10:08:33;99885.72;;;9.92
53667;BMP280;39568;51.026;5.468;2023-04-24T10:11:08;99892.63;;;10.06
53667;BMP280;39568;51.026;5.468;2023-04-24T10:13:36;99895.00;;;9.80
53667;BMP280;39568;51.026;5.468;2023-04-24T10:16:04;99898.63;;;10.06
53667;BMP280;39568;51.026;5.468;2023-04-24T10:18:30;99892.78;;;10.56
53667;BMP280;39568;51.026;5.468;2023-04-24T10:20:59;99904.25;;;10.27
53667;BMP280;39568;51.026;5.468;2023-04-24T10:23:27;99903.69;;;10.10
53667;BMP280;39568;51.026;5.468;2023-04-24T10:25:54;99907.56;;;10.09
53667;BMP280;39568;51.026;5.468;2023-04-24T10:28:24;99905.63;;;9.85
53667;BMP280;39568;51.026;5.468;2023-04-24T10:30:54;99911.97;;;9.71
53667;BMP280;39568;51.026;5.468;2023-04-24T10:33:26;99907.94;;;9.65
53667;BMP280;39568;51.026;5.468;2023-04-24T10:35:56;99906.19;;;9.37
53667;BMP280;39568;51.026;5.468;2023-04-24T10:38:25;99916.00;;;9.13
53667;BMP280;39568;51.026;5.468;2023-04-24T10:40:58;99919.38;;;9.13
53667;BMP280;39568;51.026;5.468;2023-04-24T10:43:35;99897.44;;;9.13
53667;BMP280;39568;51.026;5.468;2023-04-24T10:46:05;99930.91;;;9.21
53667;BMP280;39568;51.026;5.468;2023-04-24T10:48:33;99920.88;;;9.44
53667;BMP280;39568;51.026;5.468;2023-04-24T10:51:01;99931.63;;;9.63
53667;BMP280;39568;51.026;5.468;2023-04-24T10:53:29;99926.44;;;9.76
53667;BMP280;39568;51.026;5.468;2023-04-24T10:56:03;99943.25;;;9.89
53667;BMP280;39568;51.026;5.468;2023-04-24T10:58:38;99945.03;;;9.76
53667;BMP280;39568;51.026;5.468;2023-04-24T11:01:07;99943.34;;;9.78
53667;BMP280;39568;51.026;5.468;2023-04-24T11:03:37;99946.50;;;9.77
53667;BMP280;39568;51.026;5.468;2023-04-24T11:06:07;99955.75;;;9.65
53667;BMP280;39568;51.026;5.468;2023-04-24T11:08:42;99947.47;;;9.74
53667;BMP280;39568;51.026;5.468;2023-04-24T11:11:12;99955.97;;;10.02
53667;BMP280;39568;51.026;5.468;2023-04-24T11:14:05;99946.63;;;10.19
53667;BMP280;39568;51.026;5.468;2023-04-24T11:16:34;99956.63;;;10.32
53667;BMP280;39568;51.026;5.468;2023-04-24T11:19:05;99968.34;;;10.18
53667;BMP280;39568;51.026;5.468;2023-04-24T11:21:39;99957.47;;;10.22
53667;BMP280;39568;51.026;5.468;2023-04-24T11:24:28;99974.66;;;10.45
53667;BMP280;39568;51.026;5.468;2023-04-24T11:27:04;99964.28;;;10.17
53667;BMP280;39568;51.026;5.468;2023-04-24T11:29:47;99967.16;;;10.43
53667;BMP280;39568;51.026;5.468;2023-04-24T11:32:18;99966.94;;;10.41
53667;BMP280;39568;51.026;5.468;2023-04-24T11:34:49;99980.00;;;10.63
53667;BMP280;39568;51.026;5.468;2023-04-24T11:37:17;99967.56;;;11.78
53667;BMP280;39568;51.026;5.468;2023-04-24T11:39:50;99981.19;;;12.19
53667;BMP280;39568;51.026;5.468;2023-04-24T11:42:18;99983.72;;;12.64
53667;BMP280;39568;51.026;5.468;2023-04-24T11:44:46;99988.00;;;13.14
53667;BMP280;39568;51.026;5.468;2023-04-24T11:47:13;99976.84;;;12.55
53667;BMP280;39568;51.026;5.468;2023-04-24T11:49:40;99990.81;;;12.09
53667;BMP280;39568;51.026;5.468;2023-04-24T11:52:07;99983.00;;;12.50
53667;BMP280;39568;51.026;5.468;2023-04-24T11:54:34;99988.03;;;12.28
53667;BMP280;39568;51.026;5.468;2023-04-24T11:57:04;99991.00;;;12.50
53667;BMP280;39568;51.026;5.468;2023-04-24T11:59:35;99969.72;;;11.79
53667;BMP280;39568;51.026;5.468;2023-04-24T12:02:03;99990.09;;;11.45
53667;BMP280;39568;51.026;5.468;2023-04-24T12:04:40;99995.25;;;11.56
53667;BMP280;39568;51.026;5.468;2023-04-24T12:07:07;100010.47;;;11.61
53667;BMP280;39568;51.026;5.468;2023-04-24T12:09:41;100007.56;;;11.59
53667;BMP280;39568;51.026;5.468;2023-04-24T12:12:08;100007.06;;;11.92
53667;BMP280;39568;51.026;5.468;2023-04-24T12:14:42;100007.47;;;11.83
53667;BMP280;39568;51.026;5.468;2023-04-24T12:17:10;100012.28;;;11.53
53667;BMP280;39568;51.026;5.468;2023-04-24T12:19:45;100010.84;;;11.33
53667;BMP280;39568;51.026;5.468;2023-04-24T12:22:15;100014.53;;;11.12
53667;BMP280;39568;51.026;5.468;2023-04-24T12:24:56;100027.31;;;10.70
53667;BMP280;39568;51.026;5.468;2023-04-24T12:27:23;100032.97;;;10.86
53667;BMP280;39568;51.026;5.468;2023-04-24T12:29:55;100029.25;;;11.13
53667;BMP280;39568;51.026;5.468;2023-04-24T12:32:24;100028.63;;;11.25
53667;BMP280;39568;51.026;5.468;2023-04-24T12:34:58;100034.84;;;10.91
53667;BMP280;39568;51.026;5.468;2023-04-24T12:37:25;100031.31;;;10.82
53667;BMP280;39568;51.026;5.468;2023-04-24T12:39:59;100044.06;;;10.90
53667;BMP280;39568;51.026;5.468;2023-04-24T12:42:27;100042.97;;;11.22
53667;BMP280;39568;51.026;5.468;2023-04-24T12:44:56;100034.19;;;11.78
53667;BMP280;39568;51.026;5.468;2023-04-24T12:47:25;100034.94;;;11.91
53667;BMP280;39568;51.026;5.468;2023-04-24T12:49:52;100029.03;;;11.48
53667;BMP280;39568;51.026;5.468;2023-04-24T12:52:20;100025.16;;;11.49
53667;BMP280;39568;51.026;5.468;2023-04-24T12:54:49;100037.16;;;11.56
53667;BMP280;39568;51.026;5.468;2023-04-24T12:57:16;100039.66;;;11.35
53667;BMP280;39568;51.026;5.468;2023-04-24T12:59:43;100035.81;;;11.12
53667;BMP280;39568;51.026;5.468;2023-04-24T13:02:10;100051.56;;;11.10
53667;BMP280;39568;51.026;5.468;2023-04-24T13:04:38;100049.41;;;11.08
53667;BMP280;39568;51.026;5.468;2023-04-24T13:07:05;100056.13;;;11.15
53667;BMP280;39568;51.026;5.468;2023-04-24T13:09:34;100050.84;;;11.09
53667;BMP280;39568;51.026;5.468;2023-04-24T13:12:01;100051.88;;;11.43
53667;BMP280;39568;51.026;5.468;2023-04-24T13:14:28;100046.94;;;11.48
53667;BMP280;39568;51.026;5.468;2023-04-24T13:16:55;100050.00;;;11.57
53667;BMP280;39568;51.026;5.468;2023-04-24T13:19:23;100049.75;;;11.55
53667;BMP280;39568;51.026;5.468;2023-04-24T13:21:52;100047.41;;;11.52
53667;BMP280;39568;51.026;5.468;2023-04-24T13:24:21;100042.31;;;11.85
53667;BMP280;39568;51.026;5.468;2023-04-24T13:26:49;100054.06;;;12.08
53667;BMP280;39568;51.026;5.468;2023-04-24T13:29:16;100061.81;;;12.38
53667;BMP280;39568;51.026;5.468;2023-04-24T13:31:43;100055.06;;;12.50
53667;BMP280;39568;51.026;5.468;2023-04-24T13:34:10;100064.25;;;13.02
53667;BMP280;39568;51.026;5.468;2023-04-24T13:36:36;100068.81;;;13.27
53667;BMP280;39568;51.026;5.468;2023-04-24T13:39:05;100053.09;;;12.90
53667;BMP280;39568;51.026;5.468;2023-04-24T13:41:34;100055.88;;;12.32
53667;BMP280;39568;51.026;5.468;2023-04-24T13:44:01;100051.03;;;12.57
53667;BMP280;39568;51.026;5.468;2023-04-24T13:46:28;100053.13;;;12.64
53667;BMP280;39568;51.026;5.468;2023-04-24T13:48:57;100036.25;;;12.43
53667;BMP280;39568;51.026;5.468;2023-04-24T13:51:25;100044.66;;;12.21
53667;BMP280;39568;51.026;5.468;2023-04-24T13:53:53;100040.38;;;12.57
53667;BMP280;39568;51.026;5.468;2023-04-24T13:56:22;100061.19;;;12.85
53667;BMP280;39568;51.026;5.468;2023-04-24T13:58:48;100050.16;;;13.48
53667;BMP280;39568;51.026;5.468;2023-04-24T14:01:15;100063.97;;;14.50
53667;BMP280;39568;51.026;5.468;2023-04-24T14:03:44;100051.44;;;14.45
53667;BMP280;39568;51.026;5.468;2023-04-24T14:06:13;100049.63;;;13.83
53667;BMP280;39568;51.026;5.468;2023-04-24T14:08:39;100045.59;;;14.90
53667;BMP280;39568;51.026;5.468;2023-04-24T14:11:08;100068.31;;;14.32
53667;BMP280;39568;51.026;5.468;2023-04-24T14:13:38;100048.75;;;14.45
53667;BMP280;39568;51.026;5.468;2023-04-24T14:16:06;100055.22;;;14.49
53667;BMP280;39568;51.026;5.468;2023-04-24T14:18:32;100041.03;;;15.20
53667;BMP280;39568;51.026;5.468;2023-04-24T14:20:59;100040.00;;;14.72
53667;BMP280;39568;51.026;5.468;2023-04-24T14:23:26;100043.25;;;14.79